createdAt,value
2023-04-02T00:01:47.092Z,35.53
2023-04-02T00:04:16.207Z,32.83
2023-04-02T00:06:46.021Z,31.97
2023-04-02T00:09:15.323Z,31.00
2023-04-02T00:11:41.818Z,29.17
2023-04-02T00:14:17.412Z,31.27
2023-04-02T00:16:44.091Z,29.30
2023-04-02T00:19:15.562Z,26.87
2023-04-02T00:21:42.107Z,26.97
2023-04-02T00:24:14.700Z,28.47
2023-04-02T00:26:44.908Z,26.60
2023-04-02T00:29:11.962Z,25.87
2023-04-02T00:31:39.382Z,26.15
2023-04-02T00:34:06.985Z,26.50
2023-04-02T00:36:34.335Z,27.43
2023-04-02T00:39:02.066Z,25.63
2023-04-02T00:41:30.820Z,26.10
2023-04-02T00:43:58.049Z,27.20
2023-04-02T00:46:32.484Z,28.47
2023-04-02T00:49:13.363Z,26.03
2023-04-02T00:51:41.981Z,26.20
2023-04-02T00:54:10.129Z,27.87
2023-04-02T00:56:41.187Z,26.70
2023-04-02T00:59:22.931Z,26.57
2023-04-02T01:01:54.445Z,25.87
2023-04-02T01:04:34.781Z,26.70
2023-04-02T01:07:05.310Z,25.57
2023-04-02T01:09:44.670Z,28.73
2023-04-02T01:12:23.304Z,28.10
2023-04-02T01:14:59.184Z,27.57
2023-04-02T01:17:48.934Z,28.03
2023-04-02T01:20:25.520Z,27.80
2023-04-02T01:22:55.534Z,27.05
2023-04-02T01:25:26.932Z,26.70
2023-04-02T01:28:04.992Z,29.37
2023-04-02T01:30:32.766Z,29.17
2023-04-02T01:32:59.310Z,29.27
2023-04-02T01:35:26.134Z,28.30
2023-04-02T01:38:00.522Z,28.00
2023-04-02T01:40:36.301Z,26.13
2023-04-02T01:43:08.946Z,26.37
2023-04-02T01:45:35.654Z,26.73
2023-04-02T01:48:06.391Z,26.17
2023-04-02T01:50:39.411Z,26.70
2023-04-02T01:53:07.378Z,25.83
2023-04-02T01:55:41.382Z,28.43
2023-04-02T01:58:08.945Z,28.87
2023-04-02T02:00:36.336Z,27.33
2023-04-02T02:03:03.168Z,24.63
2023-04-02T02:05:29.872Z,25.43
2023-04-02T02:07:56.776Z,26.23
2023-04-02T02:10:27.474Z,26.17
2023-04-02T02:12:53.999Z,26.23
2023-04-02T02:15:21.678Z,25.27
2023-04-02T02:17:48.643Z,25.00
2023-04-02T02:20:15.303Z,23.50
2023-04-02T02:22:48.806Z,25.67
2023-04-02T02:25:19.242Z,23.90
2023-04-02T02:28:06.082Z,23.73
2023-04-02T02:30:32.779Z,22.27
2023-04-02T02:33:10.173Z,21.53
2023-04-02T02:35:50.047Z,21.10
2023-04-02T02:38:16.580Z,21.87
2023-04-02T02:40:43.814Z,19.77
2023-04-02T02:43:10.590Z,21.87
2023-04-02T02:45:38.096Z,19.00
2023-04-02T02:48:05.561Z,18.27
2023-04-02T02:50:32.301Z,19.10
2023-04-02T02:52:59.397Z,19.03
2023-04-02T02:55:34.504Z,18.93
2023-04-02T02:58:07.115Z,18.43
2023-04-02T03:00:33.860Z,19.30
2023-04-02T03:03:00.556Z,19.67
2023-04-02T03:05:27.996Z,19.27
2023-04-02T03:07:55.621Z,18.47
2023-04-02T03:10:22.815Z,18.60
2023-04-02T03:12:51.510Z,18.43
2023-04-02T03:15:40.320Z,18.17
2023-04-02T03:18:12.125Z,18.73
2023-04-02T03:20:40.809Z,19.03
2023-04-02T03:23:09.193Z,19.03
2023-04-02T03:25:40.577Z,18.47
2023-04-02T03:28:08.143Z,19.87
2023-04-02T03:30:34.662Z,18.33
2023-04-02T03:33:02.652Z,17.73
2023-04-02T03:35:32.339Z,19.30
2023-04-02T03:38:00.503Z,16.97
2023-04-02T03:40:32.203Z,17.37
2023-04-02T03:43:03.426Z,17.47
2023-04-02T03:45:32.563Z,17.47
2023-04-02T03:47:59.191Z,16.57
2023-04-02T03:50:27.630Z,17.93
2023-04-02T03:52:54.187Z,17.53
2023-04-02T03:55:30.723Z,18.37
2023-04-02T03:58:16.198Z,18.07
2023-04-02T04:00:48.836Z,17.90
2023-04-02T04:03:16.444Z,17.50
2023-04-02T04:05:48.813Z,17.67
2023-04-02T04:08:16.955Z,18.40
2023-04-02T04:10:44.081Z,18.20
2023-04-02T04:13:15.233Z,19.43
2023-04-02T04:15:48.524Z,18.33
2023-04-02T04:18:34.943Z,18.80
2023-04-02T04:21:02.245Z,18.17
2023-04-02T04:23:30.653Z,17.33
2023-04-02T04:26:02.181Z,17.40
2023-04-02T04:28:38.399Z,18.13
2023-04-02T04:31:21.551Z,16.63
2023-04-02T04:33:50.719Z,17.13
2023-04-02T04:36:28.743Z,16.60
2023-04-02T04:38:59.553Z,17.47
2023-04-02T04:41:30.550Z,16.63
2023-04-02T04:44:01.691Z,19.00
2023-04-02T04:46:31.686Z,19.90
2023-04-02T04:49:00.812Z,16.70
2023-04-02T04:51:28.469Z,18.97
2023-04-02T04:53:55.895Z,18.03
2023-04-02T04:56:24.137Z,18.03
2023-04-02T04:58:52.888Z,19.03
2023-04-02T05:01:24.547Z,19.57
2023-04-02T05:03:55.885Z,20.97
2023-04-02T05:06:39.564Z,20.43
2023-04-02T05:09:22.723Z,21.57
2023-04-02T05:11:57.606Z,21.57
2023-04-02T05:14:26.263Z,21.97
2023-04-02T05:17:01.204Z,24.90
2023-04-02T05:19:42.420Z,19.90
2023-04-02T05:22:12.022Z,17.67
2023-04-02T05:24:38.598Z,11.77
2023-04-02T05:27:20.238Z,11.40
2023-04-02T05:29:47.714Z,11.67
2023-04-02T05:32:16.351Z,11.83
2023-04-02T05:34:42.825Z,11.97
2023-04-02T05:37:19.773Z,10.30
2023-04-02T05:39:52.568Z,8.83
2023-04-02T05:42:21.344Z,8.20
2023-04-02T05:45:06.576Z,5.80
2023-04-02T05:47:33.233Z,4.20
2023-04-02T05:50:12.821Z,3.87
2023-04-02T05:52:50.560Z,3.20
2023-04-02T05:55:17.060Z,3.30
2023-04-02T05:57:56.714Z,3.97
2023-04-02T06:00:38.626Z,3.90
2023-04-02T06:03:07.655Z,3.80
2023-04-02T06:05:36.255Z,3.47
2023-04-02T06:08:11.402Z,2.83
2023-04-02T06:10:42.469Z,2.40
2023-04-02T06:13:08.999Z,2.37
2023-04-02T06:15:36.490Z,2.60
2023-04-02T06:18:06.941Z,3.00
2023-04-02T06:20:33.432Z,3.23
2023-04-02T06:23:01.608Z,5.23
2023-04-02T06:25:28.987Z,6.20
2023-04-02T06:27:55.682Z,5.23
2023-04-02T06:30:26.233Z,5.70
2023-04-02T06:32:52.825Z,3.57
2023-04-02T06:35:19.578Z,2.57
2023-04-02T06:37:46.558Z,2.60
2023-04-02T06:40:36.574Z,2.43
2023-04-02T06:43:05.591Z,1.70
2023-04-02T06:45:33.542Z,2.30
2023-04-02T06:48:00.646Z,3.10
2023-04-02T06:50:31.508Z,1.00
2023-04-02T06:53:06.578Z,1.97
2023-04-02T06:55:35.645Z,1.20
2023-04-02T06:58:02.333Z,1.93
2023-04-02T07:00:33.084Z,1.90
2023-04-02T07:02:59.747Z,2.40
2023-04-02T07:05:27.186Z,2.20
2023-04-02T07:07:54.080Z,2.60
2023-04-02T07:10:20.654Z,2.43
2023-04-02T07:12:47.334Z,3.43
2023-04-02T07:15:17.200Z,3.67
2023-04-02T07:17:43.984Z,3.40
2023-04-02T07:20:30.964Z,2.10
2023-04-02T07:22:57.561Z,2.13
2023-04-02T07:25:24.581Z,2.47
2023-04-02T07:27:51.511Z,2.90
2023-04-02T07:30:18.268Z,2.10
2023-04-02T07:32:44.998Z,1.23
2023-04-02T07:35:11.584Z,1.00
2023-04-02T07:37:39.005Z,0.70
2023-04-02T07:40:06.545Z,0.70
2023-04-02T07:42:33.033Z,0.80
2023-04-02T07:44:59.532Z,0.87
2023-04-02T07:47:26.681Z,0.90
2023-04-02T07:49:54.659Z,1.63
2023-04-02T07:52:22.167Z,1.60
2023-04-02T07:54:48.705Z,1.10
2023-04-02T07:57:15.366Z,0.80
2023-04-02T07:59:41.920Z,1.50
2023-04-02T08:02:16.684Z,1.90
2023-04-02T08:04:43.265Z,2.07
2023-04-02T08:07:09.729Z,1.90
2023-04-02T08:09:36.239Z,3.77
2023-04-02T08:12:02.737Z,3.20
2023-04-02T08:14:29.214Z,1.60
2023-04-02T08:16:56.149Z,1.87
2023-04-02T08:19:23.460Z,1.53
2023-04-02T08:21:51.756Z,1.13
2023-04-02T08:24:19.412Z,1.43
2023-04-02T08:26:46.449Z,1.60
2023-04-02T08:29:13.014Z,2.67
2023-04-02T08:31:39.515Z,1.73
2023-04-02T08:34:06.073Z,2.57
2023-04-02T08:36:39.088Z,3.40
2023-04-02T08:39:05.955Z,2.00
2023-04-02T08:41:36.505Z,2.50
2023-04-02T08:44:21.885Z,1.83
2023-04-02T08:46:52.295Z,1.40
2023-04-02T08:49:20.278Z,1.77
2023-04-02T08:51:46.829Z,2.03
2023-04-02T08:54:13.759Z,2.37
2023-04-02T08:56:41.637Z,2.37
2023-04-02T08:59:27.691Z,2.67
2023-04-02T09:01:54.309Z,1.87
2023-04-02T09:04:21.589Z,1.40
2023-04-02T09:06:49.909Z,1.40
2023-04-02T09:09:16.843Z,1.97
2023-04-02T09:11:53.823Z,2.23
2023-04-02T09:14:31.027Z,2.90
2023-04-02T09:17:02.135Z,3.27
2023-04-02T09:19:29.323Z,2.67
2023-04-02T09:21:58.510Z,2.77
2023-04-02T09:24:25.048Z,3.03
2023-04-02T09:26:51.686Z,2.97
2023-04-02T09:29:44.875Z,2.77
2023-04-02T09:32:19.397Z,2.80
2023-04-02T09:34:46.209Z,4.07
2023-04-02T09:37:15.740Z,4.50
2023-04-02T09:39:42.469Z,3.63
2023-04-02T09:42:26.465Z,4.17
2023-04-02T09:44:53.040Z,5.10
2023-04-02T09:47:26.389Z,5.43
2023-04-02T09:49:53.049Z,7.10
2023-04-02T09:52:29.817Z,7.23
2023-04-02T09:55:17.136Z,8.13
2023-04-02T09:57:43.726Z,7.50
2023-04-02T10:00:30.572Z,7.43
2023-04-02T10:03:18.047Z,8.43
2023-04-02T10:05:44.804Z,9.07
2023-04-02T10:08:29.665Z,8.10
2023-04-02T10:10:57.081Z,6.63
2023-04-02T10:13:41.104Z,6.97
2023-04-02T10:16:09.692Z,6.50
2023-04-02T10:18:39.925Z,7.03
2023-04-02T10:21:06.611Z,6.63
2023-04-02T10:23:33.219Z,5.27
2023-04-02T10:25:59.686Z,4.83
2023-04-02T10:28:32.869Z,4.80
2023-04-02T10:31:08.760Z,4.50
2023-04-02T10:33:38.646Z,5.53
2023-04-02T10:36:24.568Z,7.37
2023-04-02T10:39:00.166Z,6.73
2023-04-02T10:41:29.334Z,5.50
2023-04-02T10:44:19.367Z,5.67
2023-04-02T10:47:05.102Z,6.03
2023-04-02T10:49:57.901Z,6.83
2023-04-02T10:52:26.863Z,7.73
2023-04-02T10:54:57.450Z,9.77
2023-04-02T10:57:40.785Z,9.47
2023-04-02T11:00:10.679Z,8.47
2023-04-02T11:02:56.358Z,9.13
2023-04-02T11:05:44.154Z,8.80
2023-04-02T11:08:19.998Z,9.40
2023-04-02T11:10:51.676Z,9.50
2023-04-02T11:13:26.279Z,9.20
2023-04-02T11:15:53.856Z,9.80
2023-04-02T11:18:24.770Z,10.60
2023-04-02T11:20:51.386Z,12.30
2023-04-02T11:23:18.591Z,11.03
2023-04-02T11:25:45.401Z,11.67
2023-04-02T11:28:14.421Z,10.50
2023-04-02T11:30:41.387Z,11.80
2023-04-02T11:33:35.902Z,11.87
2023-04-02T11:36:03.618Z,9.93
2023-04-02T11:38:46.549Z,11.30
2023-04-02T11:41:13.166Z,11.20
2023-04-02T11:43:41.536Z,10.97
2023-04-02T11:46:17.226Z,10.70
2023-04-02T11:48:44.887Z,9.87
2023-04-02T11:51:21.452Z,9.43
2023-04-02T11:53:51.917Z,9.83
2023-04-02T11:56:37.794Z,10.17
2023-04-02T11:59:23.192Z,9.40
2023-04-02T12:01:54.876Z,19.53
2023-04-02T12:04:21.481Z,28.27
2023-04-02T12:06:51.460Z,11.03
2023-04-02T12:09:18.900Z,10.03
2023-04-02T12:11:45.433Z,8.80
2023-04-02T12:14:30.759Z,11.03
2023-04-02T12:16:57.515Z,12.77
2023-04-02T12:19:24.332Z,13.97
2023-04-02T12:21:51.388Z,14.50
2023-04-02T12:24:18.487Z,11.80
2023-04-02T12:26:46.551Z,9.37
2023-04-02T12:29:16.038Z,13.47
2023-04-02T12:31:43.697Z,16.73
2023-04-02T12:34:13.827Z,12.97
2023-04-02T12:36:40.562Z,12.17
2023-04-02T12:39:13.484Z,14.57
2023-04-02T12:41:40.501Z,11.70
2023-04-02T12:44:12.098Z,11.23
2023-04-02T12:46:38.711Z,13.73
2023-04-02T12:49:23.067Z,13.73
2023-04-02T12:51:49.633Z,11.60
2023-04-02T12:54:17.623Z,13.03
2023-04-02T12:56:44.351Z,19.43
2023-04-02T12:59:30.184Z,12.43
2023-04-02T13:01:57.726Z,11.47
2023-04-02T13:04:24.432Z,14.40
2023-04-02T13:06:57.591Z,12.43
2023-04-02T13:09:38.914Z,12.37
2023-04-02T13:12:06.105Z,11.47
2023-04-02T13:14:32.668Z,15.93
2023-04-02T13:16:59.219Z,14.00
2023-04-02T13:19:26.978Z,14.03
2023-04-02T13:21:53.798Z,17.37
2023-04-02T13:24:21.532Z,15.43
2023-04-02T13:26:50.082Z,12.43
2023-04-02T13:29:22.876Z,13.53
2023-04-02T13:31:49.589Z,13.47
2023-04-02T13:34:16.928Z,15.53
2023-04-02T13:36:43.516Z,15.00
2023-04-02T13:39:10.060Z,14.40
2023-04-02T13:41:40.880Z,14.40
2023-04-02T13:44:07.371Z,14.10
2023-04-02T13:46:34.794Z,12.70
2023-04-02T13:49:01.334Z,11.40
2023-04-02T13:51:32.265Z,13.43
2023-04-02T13:53:58.755Z,13.10
2023-04-02T13:56:25.506Z,11.80
2023-04-02T13:58:52.804Z,11.03
2023-04-02T14:01:20.805Z,10.40
2023-04-02T14:03:47.387Z,14.47
2023-04-02T14:06:20.262Z,15.87
2023-04-02T14:08:46.731Z,13.47
2023-04-02T14:11:13.216Z,12.77
2023-04-02T14:13:46.713Z,12.97
2023-04-02T14:16:25.022Z,13.70
2023-04-02T14:19:03.811Z,11.77
2023-04-02T14:21:43.250Z,12.00
2023-04-02T14:24:17.470Z,11.30
2023-04-02T14:26:59.326Z,11.40
2023-04-02T14:29:35.195Z,11.13
2023-04-02T14:32:20.484Z,12.07
2023-04-02T14:34:59.095Z,9.30
2023-04-02T14:37:28.654Z,10.00
2023-04-02T14:40:17.244Z,10.97
2023-04-02T14:42:44.666Z,9.23
2023-04-02T14:45:11.151Z,9.57
2023-04-02T14:47:50.577Z,9.77
2023-04-02T14:50:17.714Z,9.30
2023-04-02T14:52:44.664Z,10.93
2023-04-02T14:55:13.658Z,10.67
2023-04-02T14:57:49.033Z,9.87
2023-04-02T15:00:27.523Z,9.00
2023-04-02T15:02:54.176Z,7.70
2023-04-02T15:05:33.224Z,15.17
2023-04-02T15:08:01.793Z,8.00
2023-04-02T15:10:28.791Z,9.30
2023-04-02T15:12:55.688Z,6.47
2023-04-02T15:15:41.727Z,9.00
2023-04-02T15:18:13.484Z,7.57
2023-04-02T15:21:01.842Z,8.23
2023-04-02T15:23:47.265Z,9.43
2023-04-02T15:26:18.191Z,9.83
2023-04-02T15:28:51.764Z,7.27
2023-04-02T15:31:18.573Z,6.77
2023-04-02T15:33:45.629Z,9.37
2023-04-02T15:36:31.581Z,5.60
2023-04-02T15:39:05.372Z,7.03
2023-04-02T15:41:33.255Z,5.77
2023-04-02T15:44:17.929Z,7.37
2023-04-02T15:46:58.257Z,5.83
2023-04-02T15:49:27.888Z,5.93
2023-04-02T15:52:14.710Z,5.00
2023-04-02T15:55:00.548Z,4.33
2023-04-02T15:57:36.611Z,4.90
2023-04-02T16:00:09.288Z,5.40
2023-04-02T16:02:41.195Z,6.83
2023-04-02T16:05:27.388Z,3.97
2023-04-02T16:08:03.817Z,2.60
2023-04-02T16:10:41.740Z,1.83
2023-04-02T16:13:12.104Z,2.40
2023-04-02T16:15:39.530Z,2.87
2023-04-02T16:18:14.328Z,4.37
2023-04-02T16:20:42.665Z,4.93
2023-04-02T16:23:12.144Z,4.63
2023-04-02T16:25:40.272Z,4.63
2023-04-02T16:28:28.468Z,6.30
2023-04-02T16:30:56.243Z,3.70
2023-04-02T16:33:22.839Z,3.90
2023-04-02T16:36:06.224Z,5.73
2023-04-02T16:38:32.699Z,5.77
2023-04-02T16:41:08.808Z,5.37
2023-04-02T16:43:54.690Z,5.57
2023-04-02T16:46:40.616Z,4.67
2023-04-02T16:49:19.489Z,5.97
2023-04-02T16:51:51.161Z,7.00
2023-04-02T16:54:43.790Z,6.27
2023-04-02T16:57:13.493Z,5.00
2023-04-02T16:59:40.151Z,5.50
2023-04-02T17:02:17.408Z,5.50
2023-04-02T17:05:07.910Z,5.07
2023-04-02T17:07:43.289Z,5.80
2023-04-02T17:10:19.100Z,5.87
2023-04-02T17:12:46.844Z,5.80
2023-04-02T17:15:26.728Z,7.07
2023-04-02T17:17:56.367Z,6.50
2023-04-02T17:20:23.700Z,7.17
2023-04-02T17:22:50.444Z,7.23
2023-04-02T17:25:27.289Z,7.27
2023-04-02T17:27:56.979Z,8.27
2023-04-02T17:30:38.103Z,9.37
2023-04-02T17:33:11.744Z,7.43
2023-04-02T17:35:45.914Z,8.43
2023-04-02T17:38:25.154Z,8.77
2023-04-02T17:41:03.723Z,7.60
2023-04-02T17:43:46.333Z,8.23
2023-04-02T17:46:31.382Z,9.97
2023-04-02T17:49:03.369Z,8.37
2023-04-02T17:51:35.486Z,11.17
2023-04-02T17:54:17.322Z,13.90
2023-04-02T17:56:43.804Z,13.50
2023-04-02T17:59:39.781Z,9.63
2023-04-02T18:02:41.995Z,7.93
2023-04-02T18:05:08.779Z,8.13
2023-04-02T18:07:40.897Z,9.33
2023-04-02T18:10:26.363Z,8.47
2023-04-02T18:12:57.457Z,10.33
2023-04-02T18:15:42.736Z,11.47
2023-04-02T18:18:28.400Z,10.00
2023-04-02T18:21:13.904Z,9.77
2023-04-02T18:23:40.525Z,9.70
2023-04-02T18:26:33.581Z,10.87
2023-04-02T18:29:15.793Z,11.60
2023-04-02T18:32:14.633Z,10.17
2023-04-02T18:34:50.578Z,9.70
2023-04-02T18:37:20.317Z,10.70
2023-04-02T18:39:51.193Z,8.00
2023-04-02T18:42:36.699Z,8.07
2023-04-02T18:45:38.941Z,7.87
2023-04-02T18:48:08.553Z,8.77
2023-04-02T18:50:36.640Z,8.10
2023-04-02T18:53:16.829Z,9.13
2023-04-02T18:55:46.113Z,10.77
2023-04-02T18:58:16.668Z,9.43
2023-04-02T19:00:43.611Z,8.90
2023-04-02T19:03:12.408Z,8.10
2023-04-02T19:05:40.847Z,9.03
2023-04-02T19:08:21.822Z,8.50
2023-04-02T19:10:50.833Z,7.37
2023-04-02T19:13:18.275Z,9.13
2023-04-02T19:16:03.671Z,9.90
2023-04-02T19:18:49.258Z,8.97
2023-04-02T19:21:15.864Z,8.63
2023-04-02T19:23:54.812Z,8.93
2023-04-02T19:26:23.100Z,8.37
2023-04-02T19:28:49.618Z,8.37
2023-04-02T19:31:23.357Z,7.43
2023-04-02T19:33:49.892Z,7.73
2023-04-02T19:36:19.724Z,7.53
2023-04-02T19:38:58.397Z,6.53
2023-04-02T19:41:37.085Z,7.80
2023-04-02T19:44:03.711Z,7.53
2023-04-02T19:46:30.356Z,8.03
2023-04-02T19:48:57.978Z,8.47
2023-04-02T19:51:24.566Z,8.30
2023-04-02T19:53:51.182Z,7.57
2023-04-02T19:56:17.725Z,9.47
2023-04-02T19:58:44.277Z,11.07
2023-04-02T20:01:11.027Z,12.43
2023-04-02T20:03:37.592Z,10.30
2023-04-02T20:06:04.355Z,8.93
2023-04-02T20:08:31.345Z,9.13
2023-04-02T20:11:01.239Z,8.40
2023-04-02T20:13:27.792Z,10.53
2023-04-02T20:15:54.734Z,7.20
2023-04-02T20:18:21.575Z,8.90
2023-04-02T20:20:48.582Z,6.03
2023-04-02T20:23:15.889Z,8.00
2023-04-02T20:25:46.528Z,6.10
2023-04-02T20:28:13.352Z,5.80
2023-04-02T20:30:39.939Z,6.47
2023-04-02T20:33:06.782Z,7.20
2023-04-02T20:35:34.703Z,7.30
2023-04-02T20:38:03.174Z,6.93
2023-04-02T20:40:29.764Z,8.17
2023-04-02T20:42:56.304Z,6.53
2023-04-02T20:45:22.980Z,6.33
2023-04-02T20:47:49.564Z,6.63
2023-04-02T20:50:16.660Z,5.87
2023-04-02T20:52:43.271Z,7.30
2023-04-02T20:55:09.896Z,7.60
2023-04-02T20:57:36.448Z,7.03
2023-04-02T21:00:05.829Z,8.07
2023-04-02T21:02:32.381Z,8.10
2023-04-02T21:04:59.319Z,9.13
2023-04-02T21:07:25.926Z,8.67
2023-04-02T21:09:52.414Z,9.80
2023-04-02T21:12:19.109Z,9.63
2023-04-02T21:14:45.705Z,7.20
2023-04-02T21:17:12.304Z,6.27
2023-04-02T21:19:38.811Z,6.63
2023-04-02T21:22:05.415Z,6.83
2023-04-02T21:24:31.945Z,6.00
2023-04-02T21:26:58.460Z,6.00
2023-04-02T21:29:25.020Z,6.40
2023-04-02T21:31:52.562Z,7.53
2023-04-02T21:34:19.471Z,6.77
2023-04-02T21:36:46.729Z,7.13
2023-04-02T21:39:17.058Z,7.90
2023-04-02T21:41:43.805Z,7.27
2023-04-02T21:44:12.562Z,5.90
2023-04-02T21:46:39.292Z,6.60
2023-04-02T21:49:06.222Z,6.73
2023-04-02T21:51:33.062Z,5.53
2023-04-02T21:53:59.744Z,6.03
2023-04-02T21:56:27.361Z,5.67
2023-04-02T21:58:55.310Z,3.57
2023-04-02T22:01:27.217Z,3.20
2023-04-02T22:03:55.549Z,3.97
2023-04-02T22:06:22.370Z,3.73
2023-04-02T22:08:53.146Z,3.70
2023-04-02T22:11:20.996Z,3.90
2023-04-02T22:13:47.696Z,2.87
2023-04-02T22:16:15.297Z,3.67
2023-04-02T22:18:41.992Z,2.80
2023-04-02T22:21:08.625Z,3.30
2023-04-02T22:23:35.633Z,2.93
2023-04-02T22:26:02.288Z,3.87
2023-04-02T22:28:28.852Z,4.23
2023-04-02T22:30:55.806Z,3.83
2023-04-02T22:33:22.427Z,3.37
2023-04-02T22:35:49.901Z,5.30
2023-04-02T22:38:16.472Z,5.17
2023-04-02T22:40:42.959Z,4.80
2023-04-02T22:43:09.490Z,4.70
2023-04-02T22:45:36.356Z,4.50
2023-04-02T22:48:02.932Z,5.40
2023-04-02T22:50:29.512Z,5.37
2023-04-02T22:52:56.043Z,4.93
2023-04-02T22:55:22.686Z,5.43
2023-04-02T22:57:49.166Z,5.80
2023-04-02T23:00:16.265Z,7.50
2023-04-02T23:02:42.762Z,6.33
2023-04-02T23:05:10.832Z,7.20
2023-04-02T23:07:37.381Z,6.67
2023-04-02T23:10:05.809Z,7.47
2023-04-02T23:12:32.463Z,7.93
2023-04-02T23:14:59.460Z,7.13
2023-04-02T23:17:25.944Z,7.37
2023-04-02T23:19:52.463Z,6.60
2023-04-02T23:22:18.966Z,8.10
2023-04-02T23:24:45.466Z,5.90
2023-04-02T23:27:12.186Z,6.07
2023-04-02T23:29:38.679Z,5.77
2023-04-02T23:32:06.787Z,6.10
2023-04-02T23:34:33.319Z,4.73
2023-04-02T23:36:59.895Z,4.77
2023-04-02T23:39:26.423Z,4.77
2023-04-02T23:41:53.002Z,4.53
2023-04-02T23:44:19.501Z,3.53
2023-04-02T23:46:46.130Z,3.67
2023-04-02T23:49:13.143Z,3.90
2023-04-02T23:51:40.810Z,4.60
2023-04-02T23:54:07.545Z,4.90
2023-04-02T23:56:34.122Z,3.77
2023-04-02T23:59:00.774Z,4.40
